sensor_id;sensor_type;location;lat;lon;timestamp;pressure;altitude;pressure_sealevel;temperature;humidity
73016;BME280;61893;50.074;14.440;2023-08-20T00:01:24;98750.78;;;23.92;nan
73016;BME280;61893;50.074;14.440;2023-08-20T00:03:51;98747.22;;;23.79;nan
73016;BME280;61893;50.074;14.440;2023-08-20T00:06:17;98748.63;;;23.70;nan
73016;BME280;61893;50.074;14.440;2023-08-20T00:08:42;98747.38;;;23.66;nan
73016;BME280;61893;50.074;14.440;2023-08-20T00:11:08;98745.84;;;23.58;nan
73016;BME280;61893;50.074;14.440;2023-08-20T00:13:35;98747.75;;;23.58;nan
73016;BME280;61893;50.074;14.440;2023-08-20T00:16:00;98749.59;;;23.57;nan
73016;BME280;61893;50.074;14.440;2023-08-20T00:18:26;98748.56;;;23.58;nan
73016;BME280;61893;50.074;14.440;2023-08-20T00:20:55;98743.34;;;23.57;nan
73016;BME280;61893;50.074;14.440;2023-08-20T00:23:21;98747.34;;;23.54;nan
73016;BME280;61893;50.074;14.440;2023-08-20T00:25:49;98731.00;;;23.43;nan
73016;BME280;61893;50.074;14.440;2023-08-20T00:28:14;98742.66;;;23.31;nan
73016;BME280;61893;50.074;14.440;2023-08-20T00:30:40;98743.03;;;23.35;nan
73016;BME280;61893;50.074;14.440;2023-08-20T00:33:05;98739.78;;;23.45;nan
73016;BME280;61893;50.074;14.440;2023-08-20T00:35:31;98742.59;;;23.38;nan
73016;BME280;61893;50.074;14.440;2023-08-20T00:37:57;98741.97;;;23.36;nan
73016;BME280;61893;50.074;14.440;2023-08-20T00:40:23;98741.72;;;23.37;nan
73016;BME280;61893;50.074;14.440;2023-08-20T00:42:49;98746.81;;;23.34;nan
73016;BME280;61893;50.074;14.440;2023-08-20T00:45:29;98748.91;;;23.32;nan
73016;BME280;61893;50.074;14.440;2023-08-20T00:47:56;98747.94;;;23.26;nan
73016;BME280;61893;50.074;14.440;2023-08-20T00:50:35;98747.50;;;23.29;nan
73016;BME280;61893;50.074;14.440;2023-08-20T00:53:01;98747.72;;;23.28;nan
73016;BME280;61893;50.074;14.440;2023-08-20T00:55:27;98746.16;;;23.20;nan
73016;BME280;61893;50.074;14.440;2023-08-20T00:57:57;98748.66;;;23.22;nan
73016;BME280;61893;50.074;14.440;2023-08-20T01:00:23;98748.50;;;23.16;nan
73016;BME280;61893;50.074;14.440;2023-08-20T01:02:49;98757.00;;;23.20;nan
73016;BME280;61893;50.074;14.440;2023-08-20T01:05:17;98762.16;;;23.10;nan
73016;BME280;61893;50.074;14.440;2023-08-20T01:10:14;98760.81;;;23.01;nan
73016;BME280;61893;50.074;14.440;2023-08-20T01:12:45;98761.09;;;22.92;nan
73016;BME280;61893;50.074;14.440;2023-08-20T01:15:11;98766.03;;;22.77;nan
73016;BME280;61893;50.074;14.440;2023-08-20T01:18:06;98763.41;;;22.70;nan
73016;BME280;61893;50.074;14.440;2023-08-20T01:20:38;98761.81;;;22.63;nan
73016;BME280;61893;50.074;14.440;2023-08-20T01:23:35;98762.13;;;22.73;nan
73016;BME280;61893;50.074;14.440;2023-08-20T01:28:31;98755.19;;;22.59;nan
73016;BME280;61893;50.074;14.440;2023-08-20T01:31:12;98755.09;;;22.47;nan
73016;BME280;61893;50.074;14.440;2023-08-20T01:33:38;98746.91;;;22.54;nan
73016;BME280;61893;50.074;14.440;2023-08-20T01:36:06;98755.03;;;22.54;nan
73016;BME280;61893;50.074;14.440;2023-08-20T01:38:35;98757.75;;;22.54;nan
73016;BME280;61893;50.074;14.440;2023-08-20T01:41:02;98766.94;;;22.53;nan
73016;BME280;61893;50.074;14.440;2023-08-20T01:43:28;98757.38;;;22.68;nan
73016;BME280;61893;50.074;14.440;2023-08-20T01:45:54;98753.63;;;22.69;nan
73016;BME280;61893;50.074;14.440;2023-08-20T01:48:22;98756.34;;;22.69;nan
73016;BME280;61893;50.074;14.440;2023-08-20T01:50:51;98750.16;;;22.62;nan
73016;BME280;61893;50.074;14.440;2023-08-20T01:53:18;98754.66;;;22.50;nan
73016;BME280;61893;50.074;14.440;2023-08-20T01:55:43;98761.34;;;22.47;nan
73016;BME280;61893;50.074;14.440;2023-08-20T01:58:09;98761.97;;;22.49;nan
73016;BME280;61893;50.074;14.440;2023-08-20T02:00:36;98757.88;;;22.40;nan
73016;BME280;61893;50.074;14.440;2023-08-20T02:03:02;98767.69;;;22.41;nan
73016;BME280;61893;50.074;14.440;2023-08-20T02:05:27;98763.97;;;22.36;nan
73016;BME280;61893;50.074;14.440;2023-08-20T02:07:53;98765.53;;;22.25;nan
73016;BME280;61893;50.074;14.440;2023-08-20T02:10:22;98771.44;;;22.15;nan
73016;BME280;61893;50.074;14.440;2023-08-20T02:13:02;98770.81;;;22.13;nan
73016;BME280;61893;50.074;14.440;2023-08-20T02:15:29;98775.28;;;22.01;nan
73016;BME280;61893;50.074;14.440;2023-08-20T02:18:09;98770.59;;;21.90;nan
73016;BME280;61893;50.074;14.440;2023-08-20T02:20:35;98773.84;;;21.98;nan
73016;BME280;61893;50.074;14.440;2023-08-20T02:23:01;98773.16;;;22.03;nan
73016;BME280;61893;50.074;14.440;2023-08-20T02:25:27;98771.59;;;21.95;nan
73016;BME280;61893;50.074;14.440;2023-08-20T02:27:54;98774.56;;;21.87;nan
73016;BME280;61893;50.074;14.440;2023-08-20T02:30:20;98769.88;;;22.01;nan
73016;BME280;61893;50.074;14.440;2023-08-20T02:32:48;98769.88;;;22.01;nan
73016;BME280;61893;50.074;14.440;2023-08-20T02:35:13;98773.72;;;22.18;nan
73016;BME280;61893;50.074;14.440;2023-08-20T02:37:42;98771.88;;;22.12;nan
73016;BME280;61893;50.074;14.440;2023-08-20T02:40:08;98772.59;;;22.01;nan
73016;BME280;61893;50.074;14.440;2023-08-20T02:42:38;98764.47;;;22.01;nan
73016;BME280;61893;50.074;14.440;2023-08-20T02:45:04;98762.88;;;22.12;nan
73016;BME280;61893;50.074;14.440;2023-08-20T02:47:30;98765.03;;;22.03;nan
73016;BME280;61893;50.074;14.440;2023-08-20T02:50:12;98760.88;;;22.00;nan
73016;BME280;61893;50.074;14.440;2023-08-20T02:52:38;98765.91;;;22.03;nan
73016;BME280;61893;50.074;14.440;2023-08-20T02:55:04;98759.75;;;21.90;nan
73016;BME280;61893;50.074;14.440;2023-08-20T02:57:32;98760.50;;;21.97;nan
73016;BME280;61893;50.074;14.440;2023-08-20T02:59:57;98763.72;;;21.87;nan
73016;BME280;61893;50.074;14.440;2023-08-20T03:02:23;98759.13;;;21.88;nan
73016;BME280;61893;50.074;14.440;2023-08-20T03:04:55;98766.31;;;22.00;nan
73016;BME280;61893;50.074;14.440;2023-08-20T03:07:23;98768.25;;;21.93;nan
73016;BME280;61893;50.074;14.440;2023-08-20T03:09:49;98768.97;;;21.82;nan
73016;BME280;61893;50.074;14.440;2023-08-20T03:12:17;98768.69;;;21.90;nan
73016;BME280;61893;50.074;14.440;2023-08-20T03:14:45;98765.34;;;21.95;nan
73016;BME280;61893;50.074;14.440;2023-08-20T03:17:11;98767.91;;;21.83;nan
73016;BME280;61893;50.074;14.440;2023-08-20T03:22:32;98764.44;;;21.76;nan
73016;BME280;61893;50.074;14.440;2023-08-20T03:25:10;98772.16;;;21.72;nan
73016;BME280;61893;50.074;14.440;2023-08-20T03:27:35;98767.56;;;21.73;nan
73016;BME280;61893;50.074;14.440;2023-08-20T03:30:01;98781.31;;;21.71;nan
73016;BME280;61893;50.074;14.440;2023-08-20T03:34:53;98776.59;;;21.60;nan
73016;BME280;61893;50.074;14.440;2023-08-20T03:37:27;98779.97;;;21.55;nan
73016;BME280;61893;50.074;14.440;2023-08-20T03:39:53;98776.44;;;21.55;nan
73016;BME280;61893;50.074;14.440;2023-08-20T03:42:32;98770.22;;;21.48;nan
73016;BME280;61893;50.074;14.440;2023-08-20T03:45:01;98782.50;;;21.50;nan
73016;BME280;61893;50.074;14.440;2023-08-20T03:47:44;98779.41;;;21.47;nan
73016;BME280;61893;50.074;14.440;2023-08-20T03:50:27;98770.53;;;21.65;nan
73016;BME280;61893;50.074;14.440;2023-08-20T03:52:52;98783.31;;;21.51;nan
73016;BME280;61893;50.074;14.440;2023-08-20T03:55:36;98777.84;;;21.57;nan
73016;BME280;61893;50.074;14.440;2023-08-20T03:58:01;98777.47;;;21.54;nan
73016;BME280;61893;50.074;14.440;2023-08-20T04:00:27;98776.66;;;21.53;nan
73016;BME280;61893;50.074;14.440;2023-08-20T04:03:12;98770.97;;;21.62;nan
73016;BME280;61893;50.074;14.440;2023-08-20T04:05:39;98775.75;;;21.66;nan
73016;BME280;61893;50.074;14.440;2023-08-20T04:08:05;98774.63;;;21.80;nan
73016;BME280;61893;50.074;14.440;2023-08-20T04:10:34;98771.72;;;21.75;nan
73016;BME280;61893;50.074;14.440;2023-08-20T04:13:12;98778.97;;;21.81;nan
73016;BME280;61893;50.074;14.440;2023-08-20T04:15:39;98780.59;;;21.89;nan
73016;BME280;61893;50.074;14.440;2023-08-20T04:18:08;98783.44;;;21.94;nan
73016;BME280;61893;50.074;14.440;2023-08-20T04:20:38;98783.63;;;21.99;nan
73016;BME280;61893;50.074;14.440;2023-08-20T04:23:04;98782.97;;;22.04;nan
73016;BME280;61893;50.074;14.440;2023-08-20T04:25:31;98792.81;;;21.98;nan
73016;BME280;61893;50.074;14.440;2023-08-20T04:28:14;98795.97;;;22.27;nan
73016;BME280;61893;50.074;14.440;2023-08-20T04:30:40;98797.50;;;22.41;nan
73016;BME280;61893;50.074;14.440;2023-08-20T04:33:06;98799.44;;;22.34;nan
73016;BME280;61893;50.074;14.440;2023-08-20T04:35:31;98803.09;;;22.21;nan
73016;BME280;61893;50.074;14.440;2023-08-20T04:37:57;98804.47;;;22.31;nan
73016;BME280;61893;50.074;14.440;2023-08-20T04:40:23;98812.53;;;22.37;nan
73016;BME280;61893;50.074;14.440;2023-08-20T04:43:02;98805.19;;;22.19;nan
73016;BME280;61893;50.074;14.440;2023-08-20T04:45:28;98802.41;;;21.94;nan
73016;BME280;61893;50.074;14.440;2023-08-20T04:47:53;98802.66;;;21.93;nan
73016;BME280;61893;50.074;14.440;2023-08-20T04:50:19;98794.28;;;21.94;nan
73016;BME280;61893;50.074;14.440;2023-08-20T04:52:55;98796.69;;;22.09;nan
73016;BME280;61893;50.074;14.440;2023-08-20T04:55:21;98797.78;;;22.01;nan
73016;BME280;61893;50.074;14.440;2023-08-20T04:57:54;98804.66;;;22.04;nan
73016;BME280;61893;50.074;14.440;2023-08-20T05:00:19;98807.75;;;22.08;nan
73016;BME280;61893;50.074;14.440;2023-08-20T05:02:46;98806.56;;;22.29;nan
73016;BME280;61893;50.074;14.440;2023-08-20T05:05:11;98810.72;;;22.31;nan
73016;BME280;61893;50.074;14.440;2023-08-20T05:07:37;98807.78;;;22.33;nan
73016;BME280;61893;50.074;14.440;2023-08-20T05:10:02;98806.34;;;22.30;nan
73016;BME280;61893;50.074;14.440;2023-08-20T05:12:28;98814.56;;;22.23;nan
73016;BME280;61893;50.074;14.440;2023-08-20T05:14:54;98817.84;;;22.25;nan
73016;BME280;61893;50.074;14.440;2023-08-20T05:17:20;98826.59;;;22.53;nan
73016;BME280;61893;50.074;14.440;2023-08-20T05:19:48;98824.81;;;22.65;nan
73016;BME280;61893;50.074;14.440;2023-08-20T05:22:31;98833.16;;;22.63;nan
73016;BME280;61893;50.074;14.440;2023-08-20T05:24:57;98823.56;;;22.42;nan
73016;BME280;61893;50.074;14.440;2023-08-20T05:27:25;98828.63;;;22.57;nan
73016;BME280;61893;50.074;14.440;2023-08-20T05:29:51;98828.34;;;22.65;nan
73016;BME280;61893;50.074;14.440;2023-08-20T05:32:18;98829.59;;;22.44;nan
73016;BME280;61893;50.074;14.440;2023-08-20T05:34:44;98834.59;;;22.66;nan
73016;BME280;61893;50.074;14.440;2023-08-20T05:37:09;98836.28;;;22.42;nan
73016;BME280;61893;50.074;14.440;2023-08-20T05:39:40;98838.00;;;22.61;nan
73016;BME280;61893;50.074;14.440;2023-08-20T05:42:06;98845.13;;;22.56;nan
73016;BME280;61893;50.074;14.440;2023-08-20T05:44:38;98850.22;;;22.70;nan
73016;BME280;61893;50.074;14.440;2023-08-20T05:47:03;98849.88;;;22.60;nan
73016;BME280;61893;50.074;14.440;2023-08-20T05:49:31;98853.63;;;22.84;nan
73016;BME280;61893;50.074;14.440;2023-08-20T05:51:56;98855.72;;;22.82;nan
73016;BME280;61893;50.074;14.440;2023-08-20T05:54:37;98853.25;;;22.81;nan
73016;BME280;61893;50.074;14.440;2023-08-20T05:57:05;98858.28;;;23.02;nan
73016;BME280;61893;50.074;14.440;2023-08-20T05:59:31;98860.03;;;23.15;nan
73016;BME280;61893;50.074;14.440;2023-08-20T06:01:57;98870.19;;;23.01;nan
73016;BME280;61893;50.074;14.440;2023-08-20T06:04:30;98861.88;;;22.96;nan
73016;BME280;61893;50.074;14.440;2023-08-20T06:06:55;98865.84;;;22.93;nan
73016;BME280;61893;50.074;14.440;2023-08-20T06:09:21;98873.66;;;23.08;nan
73016;BME280;61893;50.074;14.440;2023-08-20T06:11:47;98873.81;;;23.13;nan
73016;BME280;61893;50.074;14.440;2023-08-20T06:14:34;98879.44;;;23.12;nan
73016;BME280;61893;50.074;14.440;2023-08-20T06:17:00;98875.91;;;23.11;nan
73016;BME280;61893;50.074;14.440;2023-08-20T06:19:33;98876.53;;;23.13;nan
73016;BME280;61893;50.074;14.440;2023-08-20T06:22:17;98878.63;;;23.11;nan
73016;BME280;61893;50.074;14.440;2023-08-20T06:25:04;98877.50;;;23.19;nan
73016;BME280;61893;50.074;14.440;2023-08-20T06:27:33;98873.53;;;23.22;nan
73016;BME280;61893;50.074;14.440;2023-08-20T06:29:59;98881.66;;;23.22;nan
73016;BME280;61893;50.074;14.440;2023-08-20T06:32:43;98877.59;;;23.12;nan
73016;BME280;61893;50.074;14.440;2023-08-20T06:35:22;98878.34;;;22.94;nan
73016;BME280;61893;50.074;14.440;2023-08-20T06:37:48;98883.97;;;23.00;nan
73016;BME280;61893;50.074;14.440;2023-08-20T06:40:15;98886.41;;;23.08;nan
73016;BME280;61893;50.074;14.440;2023-08-20T06:42:41;98887.84;;;23.10;nan
73016;BME280;61893;50.074;14.440;2023-08-20T06:45:12;98897.13;;;23.21;nan
73016;BME280;61893;50.074;14.440;2023-08-20T06:47:40;98893.34;;;23.22;nan
73016;BME280;61893;50.074;14.440;2023-08-20T06:50:06;98900.16;;;23.50;nan
73016;BME280;61893;50.074;14.440;2023-08-20T06:52:32;98897.41;;;23.31;nan
73016;BME280;61893;50.074;14.440;2023-08-20T06:54:57;98898.88;;;23.52;nan
73016;BME280;61893;50.074;14.440;2023-08-20T06:57:38;98898.47;;;23.49;nan
73016;BME280;61893;50.074;14.440;2023-08-20T07:00:09;98902.75;;;23.93;nan
73016;BME280;61893;50.074;14.440;2023-08-20T07:02:35;98907.09;;;24.13;nan
73016;BME280;61893;50.074;14.440;2023-08-20T07:05:04;98906.06;;;24.25;nan
73016;BME280;61893;50.074;14.440;2023-08-20T07:07:32;98914.31;;;24.19;nan
73016;BME280;61893;50.074;14.440;2023-08-20T07:09:58;98911.63;;;24.72;nan
73016;BME280;61893;50.074;14.440;2023-08-20T07:12:24;98914.00;;;25.04;nan
73016;BME280;61893;50.074;14.440;2023-08-20T07:14:58;98912.81;;;25.12;nan
73016;BME280;61893;50.074;14.440;2023-08-20T07:17:27;98923.47;;;24.78;nan
73016;BME280;61893;50.074;14.440;2023-08-20T07:19:59;98916.47;;;25.06;nan
73016;BME280;61893;50.074;14.440;2023-08-20T07:22:34;98923.34;;;25.08;nan
73016;BME280;61893;50.074;14.440;2023-08-20T07:25:07;98916.16;;;25.26;nan
73016;BME280;61893;50.074;14.440;2023-08-20T07:27:39;98918.28;;;25.35;nan
73016;BME280;61893;50.074;14.440;2023-08-20T07:30:05;98927.06;;;25.14;nan
73016;BME280;61893;50.074;14.440;2023-08-20T07:32:42;98916.97;;;25.14;nan
73016;BME280;61893;50.074;14.440;2023-08-20T07:35:08;98918.41;;;25.29;nan
73016;BME280;61893;50.074;14.440;2023-08-20T07:38:01;98925.91;;;25.74;nan
73016;BME280;61893;50.074;14.440;2023-08-20T07:41:03;98917.72;;;25.74;nan
73016;BME280;61893;50.074;14.440;2023-08-20T07:43:44;98917.00;;;25.90;nan
73016;BME280;61893;50.074;14.440;2023-08-20T07:46:10;98920.69;;;26.13;nan
73016;BME280;61893;50.074;14.440;2023-08-20T07:48:38;98923.22;;;26.31;nan
73016;BME280;61893;50.074;14.440;2023-08-20T07:51:40;98924.34;;;26.64;nan
73016;BME280;61893;50.074;14.440;2023-08-20T07:54:06;98925.75;;;26.83;nan
73016;BME280;61893;50.074;14.440;2023-08-20T07:56:34;98924.94;;;27.16;nan
73016;BME280;61893;50.074;14.440;2023-08-20T07:59:08;98925.72;;;27.34;nan
73016;BME280;61893;50.074;14.440;2023-08-20T08:01:56;98925.06;;;27.66;nan
73016;BME280;61893;50.074;14.440;2023-08-20T08:04:30;98923.19;;;26.93;nan
73016;BME280;61893;50.074;14.440;2023-08-20T08:07:04;98919.69;;;27.32;nan
73016;BME280;61893;50.074;14.440;2023-08-20T08:09:52;98926.34;;;28.02;nan
73016;BME280;61893;50.074;14.440;2023-08-20T08:12:18;98930.25;;;28.11;nan
73016;BME280;61893;50.074;14.440;2023-08-20T08:15:03;98933.09;;;28.21;nan
73016;BME280;61893;50.074;14.440;2023-08-20T08:17:31;98932.50;;;27.31;nan
73016;BME280;61893;50.074;14.440;2023-08-20T08:19:59;98934.19;;;27.15;nan
73016;BME280;61893;50.074;14.440;2023-08-20T08:22:34;98939.81;;;28.08;nan
73016;BME280;61893;50.074;14.440;2023-08-20T08:25:32;98932.53;;;29.06;nan
73016;BME280;61893;50.074;14.440;2023-08-20T08:28:04;98933.47;;;29.69;nan
73016;BME280;61893;50.074;14.440;2023-08-20T08:30:30;98937.19;;;29.53;nan
73016;BME280;61893;50.074;14.440;2023-08-20T08:32:56;98942.84;;;29.83;nan
73016;BME280;61893;50.074;14.440;2023-08-20T08:35:39;98949.13;;;29.74;nan
73016;BME280;61893;50.074;14.440;2023-08-20T08:38:27;98954.03;;;30.70;nan
73016;BME280;61893;50.074;14.440;2023-08-20T08:40:53;98952.94;;;31.23;nan
73016;BME280;61893;50.074;14.440;2023-08-20T08:43:33;98956.25;;;30.99;nan
73016;BME280;61893;50.074;14.440;2023-08-20T08:45:59;98955.16;;;30.85;nan
73016;BME280;61893;50.074;14.440;2023-08-20T08:48:34;98951.63;;;30.79;nan
73016;BME280;61893;50.074;14.440;2023-08-20T08:51:01;98955.41;;;30.73;nan
73016;BME280;61893;50.074;14.440;2023-08-20T08:53:33;98962.81;;;30.52;nan
73016;BME280;61893;50.074;14.440;2023-08-20T08:56:04;98958.50;;;29.88;nan
73016;BME280;61893;50.074;14.440;2023-08-20T08:58:45;98957.91;;;29.81;nan
73016;BME280;61893;50.074;14.440;2023-08-20T09:01:23;98954.84;;;30.61;nan
73016;BME280;61893;50.074;14.440;2023-08-20T09:03:50;98955.97;;;30.90;nan
73016;BME280;61893;50.074;14.440;2023-08-20T09:09:26;98962.00;;;31.28;nan
73016;BME280;61893;50.074;14.440;2023-08-20T09:11:55;98963.69;;;30.88;nan
73016;BME280;61893;50.074;14.440;2023-08-20T09:14:21;98960.97;;;30.93;nan
73016;BME280;61893;50.074;14.440;2023-08-20T09:17:03;98970.28;;;31.08;nan
73016;BME280;61893;50.074;14.440;2023-08-20T09:19:45;98975.69;;;31.59;nan
73016;BME280;61893;50.074;14.440;2023-08-20T09:22:14;98982.03;;;32.29;nan
73016;BME280;61893;50.074;14.440;2023-08-20T09:24:47;98988.47;;;32.15;nan
73016;BME280;61893;50.074;14.440;2023-08-20T09:27:15;98984.16;;;31.83;nan
73016;BME280;61893;50.074;14.440;2023-08-20T09:29:48;98988.06;;;31.61;nan
73016;BME280;61893;50.074;14.440;2023-08-20T09:32:24;98979.81;;;31.61;nan
73016;BME280;61893;50.074;14.440;2023-08-20T09:34:50;98988.56;;;31.84;nan
73016;BME280;61893;50.074;14.440;2023-08-20T09:37:21;98986.28;;;32.12;nan
73016;BME280;61893;50.074;14.440;2023-08-20T09:39:47;98981.09;;;31.90;nan
73016;BME280;61893;50.074;14.440;2023-08-20T09:42:28;98986.38;;;32.41;nan
73016;BME280;61893;50.074;14.440;2023-08-20T09:45:02;98990.13;;;32.65;nan
73016;BME280;61893;50.074;14.440;2023-08-20T09:47:29;98993.25;;;33.51;nan
73016;BME280;61893;50.074;14.440;2023-08-20T09:50:06;98996.03;;;34.42;nan
73016;BME280;61893;50.074;14.440;2023-08-20T09:52:44;98990.56;;;34.18;nan
73016;BME280;61893;50.074;14.440;2023-08-20T09:55:17;98992.84;;;34.35;nan
73016;BME280;61893;50.074;14.440;2023-08-20T09:57:45;98989.09;;;34.26;nan
73016;BME280;61893;50.074;14.440;2023-08-20T10:00:25;98989.00;;;34.31;nan
73016;BME280;61893;50.074;14.440;2023-08-20T10:02:53;98992.41;;;33.27;nan
73016;BME280;61893;50.074;14.440;2023-08-20T10:05:45;98987.53;;;32.79;nan
73016;BME280;61893;50.074;14.440;2023-08-20T10:08:12;98989.44;;;33.47;nan
73016;BME280;61893;50.074;14.440;2023-08-20T10:10:47;98991.22;;;33.33;nan
73016;BME280;61893;50.074;14.440;2023-08-20T10:13:13;98990.66;;;33.36;nan
73016;BME280;61893;50.074;14.440;2023-08-20T10:16:23;98986.72;;;33.71;nan
73016;BME280;61893;50.074;14.440;2023-08-20T10:18:49;98987.31;;;33.39;nan
73016;BME280;61893;50.074;14.440;2023-08-20T10:21:30;98978.06;;;32.90;nan
73016;BME280;61893;50.074;14.440;2023-08-20T10:24:18;98977.59;;;32.39;nan
73016;BME280;61893;50.074;14.440;2023-08-20T10:27:09;98972.31;;;31.93;nan
73016;BME280;61893;50.074;14.440;2023-08-20T10:30:11;98973.00;;;32.24;nan
73016;BME280;61893;50.074;14.440;2023-08-20T10:32:50;98972.91;;;31.74;nan
73016;BME280;61893;50.074;14.440;2023-08-20T10:35:22;98969.13;;;32.25;nan
73016;BME280;61893;50.074;14.440;2023-08-20T10:43:23;98970.44;;;31.68;nan
73016;BME280;61893;50.074;14.440;2023-08-20T10:46:19;98969.69;;;31.41;nan
73016;BME280;61893;50.074;14.440;2023-08-20T10:56:43;98963.25;;;31.92;nan
73016;BME280;61893;50.074;14.440;2023-08-20T10:59:23;98965.53;;;31.59;nan
73016;BME280;61893;50.074;14.440;2023-08-20T11:01:52;98963.88;;;31.69;nan
73016;BME280;61893;50.074;14.440;2023-08-20T11:04:19;98963.94;;;31.43;nan
73016;BME280;61893;50.074;14.440;2023-08-20T11:06:46;98962.50;;;31.61;nan
73016;BME280;61893;50.074;14.440;2023-08-20T11:09:30;98958.72;;;31.26;nan
73016;BME280;61893;50.074;14.440;2023-08-20T11:11:56;98955.66;;;31.33;nan
73016;BME280;61893;50.074;14.440;2023-08-20T11:14:22;98949.88;;;31.50;nan
73016;BME280;61893;50.074;14.440;2023-08-20T11:16:51;98949.06;;;31.49;nan
73016;BME280;61893;50.074;14.440;2023-08-20T11:19:20;98947.72;;;31.36;nan
73016;BME280;61893;50.074;14.440;2023-08-20T11:21:46;98948.25;;;31.44;nan
73016;BME280;61893;50.074;14.440;2023-08-20T11:24:15;98950.50;;;30.95;nan
73016;BME280;61893;50.074;14.440;2023-08-20T11:26:44;98947.78;;;30.85;nan
73016;BME280;61893;50.074;14.440;2023-08-20T11:29:42;98947.47;;;30.82;nan
73016;BME280;61893;50.074;14.440;2023-08-20T11:32:40;98948.81;;;30.64;nan
73016;BME280;61893;50.074;14.440;2023-08-20T11:35:43;98943.88;;;31.12;nan
73016;BME280;61893;50.074;14.440;2023-08-20T11:39:17;98937.81;;;31.46;nan
73016;BME280;61893;50.074;14.440;2023-08-20T11:42:00;98931.50;;;31.19;nan
73016;BME280;61893;50.074;14.440;2023-08-20T11:44:27;98934.22;;;31.35;nan
73016;BME280;61893;50.074;14.440;2023-08-20T11:47:13;98935.88;;;31.51;nan
73016;BME280;61893;50.074;14.440;2023-08-20T11:49:39;98931.13;;;31.62;nan
73016;BME280;61893;50.074;14.440;2023-08-20T11:52:05;98928.44;;;31.41;nan
73016;BME280;61893;50.074;14.440;2023-08-20T11:54:31;98932.81;;;31.48;nan
73016;BME280;61893;50.074;14.440;2023-08-20T11:57:13;98933.91;;;31.57;nan
73016;BME280;61893;50.074;14.440;2023-08-20T11:59:41;98933.34;;;31.60;nan
73016;BME280;61893;50.074;14.440;2023-08-20T12:02:09;98927.84;;;31.60;nan
73016;BME280;61893;50.074;14.440;2023-08-20T12:04:50;98942.38;;;31.76;nan
73016;BME280;61893;50.074;14.440;2023-08-20T12:07:33;98934.09;;;31.91;nan
73016;BME280;61893;50.074;14.440;2023-08-20T12:10:41;98933.22;;;31.96;nan
73016;BME280;61893;50.074;14.440;2023-08-20T12:12:57;98931.81;;;32.03;nan
73016;BME280;61893;50.074;14.440;2023-08-20T12:15:23;98926.84;;;32.05;nan
73016;BME280;61893;50.074;14.440;2023-08-20T12:18:04;98929.16;;;32.33;nan
73016;BME280;61893;50.074;14.440;2023-08-20T12:20:56;98924.28;;;32.19;nan
73016;BME280;61893;50.074;14.440;2023-08-20T12:23:47;98924.69;;;32.47;nan
73016;BME280;61893;50.074;14.440;2023-08-20T12:26:19;98924.09;;;32.50;nan
73016;BME280;61893;50.074;14.440;2023-08-20T12:28:50;98925.44;;;32.58;nan
73016;BME280;61893;50.074;14.440;2023-08-20T12:31:16;98924.78;;;32.26;nan
73016;BME280;61893;50.074;14.440;2023-08-20T12:33:42;98912.53;;;32.08;nan
73016;BME280;61893;50.074;14.440;2023-08-20T12:36:14;98907.50;;;32.60;nan
73016;BME280;61893;50.074;14.440;2023-08-20T12:38:40;98901.97;;;32.21;nan
73016;BME280;61893;50.074;14.440;2023-08-20T12:41:08;98899.66;;;32.78;nan
73016;BME280;61893;50.074;14.440;2023-08-20T12:43:34;98899.41;;;32.74;nan
73016;BME280;61893;50.074;14.440;2023-08-20T12:46:02;98895.66;;;32.94;nan
73016;BME280;61893;50.074;14.440;2023-08-20T12:48:31;98897.72;;;32.78;nan
73016;BME280;61893;50.074;14.440;2023-08-20T12:50:57;98894.09;;;32.83;nan
73016;BME280;61893;50.074;14.440;2023-08-20T12:53:25;98888.31;;;32.79;nan
73016;BME280;61893;50.074;14.440;2023-08-20T12:55:51;98880.16;;;32.98;nan
73016;BME280;61893;50.074;14.440;2023-08-20T12:58:17;98876.16;;;33.14;nan
73016;BME280;61893;50.074;14.440;2023-08-20T13:00:44;98873.63;;;33.18;nan
73016;BME280;61893;50.074;14.440;2023-08-20T13:03:17;98868.63;;;33.44;nan
73016;BME280;61893;50.074;14.440;2023-08-20T13:05:45;98868.84;;;33.53;nan
73016;BME280;61893;50.074;14.440;2023-08-20T13:08:25;98863.38;;;32.94;nan
73016;BME280;61893;50.074;14.440;2023-08-20T13:10:55;98857.97;;;33.37;nan
73016;BME280;61893;50.074;14.440;2023-08-20T13:13:22;98857.75;;;33.34;nan
73016;BME280;61893;50.074;14.440;2023-08-20T13:15:54;98849.59;;;33.24;nan
73016;BME280;61893;50.074;14.440;2023-08-20T13:18:20;98851.66;;;33.37;nan
73016;BME280;61893;50.074;14.440;2023-08-20T13:20:51;98848.53;;;33.86;nan
73016;BME280;61893;50.074;14.440;2023-08-20T13:23:16;98848.59;;;34.00;nan
73016;BME280;61893;50.074;14.440;2023-08-20T13:25:46;98847.41;;;33.87;nan
73016;BME280;61893;50.074;14.440;2023-08-20T13:28:16;98851.22;;;33.92;nan
73016;BME280;61893;50.074;14.440;2023-08-20T13:30:48;98856.00;;;33.86;nan
73016;BME280;61893;50.074;14.440;2023-08-20T13:33:13;98852.78;;;34.17;nan
73016;BME280;61893;50.074;14.440;2023-08-20T13:35:47;98858.75;;;34.43;nan
73016;BME280;61893;50.074;14.440;2023-08-20T13:38:20;98858.38;;;34.30;nan
73016;BME280;61893;50.074;14.440;2023-08-20T13:40:54;98859.69;;;33.76;nan
73016;BME280;61893;50.074;14.440;2023-08-20T13:43:24;98870.81;;;34.14;nan
73016;BME280;61893;50.074;14.440;2023-08-20T13:45:55;98863.25;;;34.20;nan
73016;BME280;61893;50.074;14.440;2023-08-20T13:48:21;98864.00;;;34.06;nan
73016;BME280;61893;50.074;14.440;2023-08-20T13:50:47;98862.16;;;33.78;nan
73016;BME280;61893;50.074;14.440;2023-08-20T13:53:12;98864.88;;;34.21;nan
73016;BME280;61893;50.074;14.440;2023-08-20T13:55:41;98862.69;;;34.56;nan
73016;BME280;61893;50.074;14.440;2023-08-20T13:58:07;98860.75;;;34.89;nan
73016;BME280;61893;50.074;14.440;2023-08-20T14:00:48;98848.19;;;34.64;nan